Terminal Aerodrome Forecast
Issued by NWS

Home | Current Version | Previous Version | Text Only | Print | Product List | Glossary On
Versions: 1 2 3 4 5 6 7 8 9 10 11 12
094
FTPA31 PHFO 201741
TAFHJR
TAF
PHJR 201741Z 2018/2118 05004KT P6SM VCSH SCT025 BKN040
     FM202100 12010KT P6SM VCSH SCT025 BKN035
     FM210400 VRB05KT P6SM VCSH FEW025 BKN040=

USA.gov is the U.S. government's official web portal to all federal, state and local government web resources and services.